Time;durP1;ratioP1;P1;durP2;ratioP2;P2;SDS_P1;SDS_P2;PMS_P1;PMS_P2;Temp;Humidity;BMP_temperature;BMP_pressure;BME280_temperature;BME280_humidity;BME280_pressure;Samples;Min_cycle;Max_cycle;Signal;HPM_P1;HPM_P2
2024/01/27 00:01:36;;;;;;;0.10;0.10;;;5.80;99.90;;;;;;5024673;28;20077;-69
2024/01/27 00:04:02;;;;;;;2.92;1.58;;;5.90;99.90;;;;;;5030544;28;20045;-69
2024/01/27 00:06:27;;;;;;;0.10;0.10;;;5.80;99.90;;;;;;5021999;28;20107;-69
2024/01/27 00:08:53;;;;;;;0.38;0.38;;;5.90;99.90;;;;;;5027985;28;20176;-69
2024/01/27 00:11:19;;;;;;;3.03;2.72;;;5.80;99.90;;;;;;5028824;28;20064;-69
2024/01/27 00:13:45;;;;;;;0.10;0.10;;;5.80;99.90;;;;;;5019845;28;20511;-69
2024/01/27 00:16:10;;;;;;;0.10;0.10;;;5.80;99.90;;;;;;5029349;28;20045;-69
2024/01/27 00:18:37;;;;;;;0.10;0.10;;;5.70;99.90;;;;;;5037147;28;20072;-69
2024/01/27 00:21:03;;;;;;;2.10;1.17;;;5.70;99.90;;;;;;5025233;28;20050;-68
2024/01/27 00:23:28;;;;;;;0.10;0.10;;;5.70;99.90;;;;;;5021708;28;20103;-69
2024/01/27 00:25:54;;;;;;;0.10;0.10;;;5.60;99.90;;;;;;5029936;28;20489;-69
2024/01/27 00:28:19;;;;;;;0.98;0.77;;;5.60;99.90;;;;;;5023610;28;20069;-69
2024/01/27 00:30:45;;;;;;;3.60;1.85;;;5.60;99.90;;;;;;5019219;28;20050;-68
2024/01/27 00:33:11;;;;;;;0.35;0.35;;;5.70;99.90;;;;;;5030412;28;20049;-69
2024/01/27 00:35:36;;;;;;;0.10;0.10;;;5.70;99.90;;;;;;5024531;28;20053;-69
2024/01/27 00:38:02;;;;;;;0.10;0.10;;;5.60;99.90;;;;;;5022647;28;20069;-69
2024/01/27 00:40:28;;;;;;;2.67;1.55;;;5.60;99.90;;;;;;5044603;28;20120;-69
2024/01/27 00:42:54;;;;;;;0.10;0.10;;;5.70;99.90;;;;;;5027764;28;20045;-69
2024/01/27 00:45:22;;;;;;;49.30;1.50;;;5.60;99.90;;;;;;5017222;28;20049;-69
2024/01/27 00:47:49;;;;;;;0.10;0.10;;;5.60;99.90;;;;;;5029239;28;20481;-69
2024/01/27 00:50:15;;;;;;;6.50;1.08;;;5.60;99.90;;;;;;5021832;28;20041;-69
2024/01/27 00:52:40;;;;;;;0.20;0.20;;;5.50;99.90;;;;;;5026650;28;20118;-69
2024/01/27 00:55:06;;;;;;;0.10;0.10;;;5.60;99.90;;;;;;5030242;28;20041;-69
2024/01/27 00:57:32;;;;;;;0.10;0.10;;;5.50;99.90;;;;;;5021756;28;20049;-69
2024/01/27 00:59:57;;;;;;;0.10;0.10;;;5.50;99.90;;;;;;5013837;28;20045;-69
2024/01/27 01:02:23;;;;;;;0.10;0.10;;;5.50;99.90;;;;;;5021977;28;20042;-69
2024/01/27 01:04:49;;;;;;;0.75;0.73;;;5.50;99.90;;;;;;5030042;28;20045;-69
2024/01/27 01:07:15;;;;;;;0.10;0.10;;;5.50;99.90;;;;;;5022667;28;20448;-69
2024/01/27 01:09:40;;;;;;;0.10;0.10;;;5.40;99.90;;;;;;5026568;28;20550;-68
2024/01/27 01:12:06;;;;;;;0.10;0.10;;;5.40;99.90;;;;;;5029355;28;20044;-68
2024/01/27 01:14:32;;;;;;;0.10;0.10;;;5.30;99.90;;;;;;5025759;28;20541;-69
2024/01/27 01:16:58;;;;;;;0.10;0.10;;;5.30;99.90;;;;;;5017841;28;20046;-69
2024/01/27 01:19:23;;;;;;;0.10;0.10;;;5.30;99.90;;;;;;5029807;28;20120;-69
2024/01/27 01:21:49;;;;;;;0.25;0.25;;;5.20;99.90;;;;;;5021226;28;20061;-69
2024/01/27 01:24:14;;;;;;;2.17;1.30;;;5.20;99.90;;;;;;5025476;28;20056;-69
2024/01/27 01:26:40;;;;;;;0.10;0.10;;;5.20;99.90;;;;;;5023211;28;20041;-69
2024/01/27 01:29:06;;;;;;;0.10;0.10;;;5.20;99.90;;;;;;5023921;28;20560;-69
2024/01/27 01:31:31;;;;;;;0.45;0.45;;;5.20;99.90;;;;;;5024180;28;20405;-69
2024/01/27 01:33:57;;;;;;;0.80;0.80;;;5.20;99.90;;;;;;5016545;28;20038;-69
2024/01/27 01:36:23;;;;;;;0.30;0.30;;;5.20;99.90;;;;;;5023840;28;20041;-69
2024/01/27 01:38:49;;;;;;;0.10;0.10;;;5.20;99.90;;;;;;5026695;28;20558;-69
2024/01/27 01:41:14;;;;;;;0.10;0.10;;;5.20;99.90;;;;;;5028722;28;20045;-68
2024/01/27 01:43:40;;;;;;;0.52;0.45;;;5.20;99.90;;;;;;5019466;28;20041;-69
2024/01/27 01:46:05;;;;;;;1.10;1.00;;;5.20;99.90;;;;;;5022302;28;20508;-69
2024/01/27 01:48:31;;;;;;;20.27;1.45;;;5.20;99.90;;;;;;5028145;28;20176;-69
2024/01/27 01:50:59;;;;;;;0.10;0.10;;;5.20;99.90;;;;;;5019993;28;20473;-69
2024/01/27 01:53:25;;;;;;;0.10;0.10;;;5.20;99.90;;;;;;5028216;28;20037;-68
2024/01/27 01:55:52;;;;;;;0.10;0.10;;;5.20;99.90;;;;;;5020973;28;20394;-68
2024/01/27 01:58:18;;;;;;;0.10;0.10;;;5.20;99.90;;;;;;5021654;28;20037;-68
2024/01/27 02:00:44;;;;;;;0.30;0.30;;;5.20;99.90;;;;;;5032809;28;20505;-69
2024/01/27 02:03:13;;;;;;;0.10;0.10;;;5.20;99.90;;;;;;5027154;28;20049;-69
2024/01/27 02:05:39;;;;;;;0.10;0.10;;;5.20;99.90;;;;;;5020519;28;20128;-69
2024/01/27 02:08:05;;;;;;;0.20;0.20;;;5.20;99.90;;;;;;5018763;28;20180;-68
2024/01/27 02:10:36;;;;;;;0.40;0.40;;;5.10;99.90;;;;;;5023866;28;20112;-69
2024/01/27 02:13:19;;;;;;;0.73;0.45;;;5.10;99.90;;;;;;5023358;28;20095;-69
2024/01/27 02:15:46;;;;;;;0.10;0.10;;;5.00;99.90;;;;;;5023013;28;20128;-68
2024/01/27 02:18:12;;;;;;;0.10;0.10;;;5.00;99.90;;;;;;5024287;28;20046;-68
2024/01/27 02:20:38;;;;;;;1.02;0.73;;;5.00;99.90;;;;;;5018681;28;20072;-69
2024/01/27 02:23:04;;;;;;;0.50;0.50;;;5.00;99.90;;;;;;5026652;28;20049;-68
2024/01/27 02:25:34;;;;;;;0.10;0.10;;;4.90;99.90;;;;;;5025658;28;20449;-69
2024/01/27 02:28:00;;;;;;;0.00;0.00;;;4.90;99.90;;;;;;5017396;28;20130;-69
2024/01/27 02:30:26;;;;;;;0.10;0.10;;;4.80;99.90;;;;;;5027037;28;20041;-68
2024/01/27 02:32:52;;;;;;;0.90;0.80;;;4.90;99.90;;;;;;5024751;28;20049;-69
2024/01/27 02:35:18;;;;;;;0.10;0.10;;;4.90;99.90;;;;;;5024284;28;20049;-69
2024/01/27 02:37:43;;;;;;;0.22;0.22;;;4.90;99.90;;;;;;5021947;28;20610;-69
2024/01/27 02:40:09;;;;;;;0.10;0.10;;;4.90;99.90;;;;;;5025106;28;20497;-69
2024/01/27 02:42:36;;;;;;;0.17;0.17;;;4.90;99.90;;;;;;5025053;28;20069;-69
2024/01/27 02:45:03;;;;;;;0.10;0.10;;;4.80;99.90;;;;;;5025907;28;20541;-69
2024/01/27 02:47:28;;;;;;;9.32;2.10;;;4.80;99.90;;;;;;5022289;28;20049;-69
2024/01/27 02:49:54;;;;;;;0.10;0.10;;;4.80;99.90;;;;;;5021605;28;20056;-69
2024/01/27 02:52:19;;;;;;;0.10;0.10;;;4.90;99.90;;;;;;5015821;28;20042;-68
2024/01/27 02:54:45;;;;;;;0.10;0.10;;;4.90;99.90;;;;;;5024733;28;20443;-69
2024/01/27 02:57:11;;;;;;;2.15;1.95;;;5.00;99.90;;;;;;5024410;28;20045;-69
2024/01/27 02:59:38;;;;;;;0.00;0.00;;;5.00;99.90;;;;;;5016798;28;20116;-69
2024/01/27 03:02:07;;;;;;;0.10;0.10;;;5.00;99.90;;;;;;5021540;28;20507;-69
2024/01/27 03:04:33;;;;;;;2.63;0.50;;;5.00;99.90;;;;;;5022639;28;20036;-69
2024/01/27 03:06:58;;;;;;;1.25;1.15;;;4.90;99.90;;;;;;5027192;28;20404;-69
2024/01/27 03:09:24;;;;;;;0.10;0.10;;;5.00;99.90;;;;;;5027286;28;20049;-68
2024/01/27 03:11:49;;;;;;;0.10;0.10;;;4.90;99.90;;;;;;5020945;28;20474;-68
2024/01/27 03:14:15;;;;;;;0.10;0.10;;;4.90;99.90;;;;;;5017640;28;20037;-69
2024/01/27 03:16:43;;;;;;;4.38;2.40;;;4.90;99.90;;;;;;5021916;28;20045;-69
2024/01/27 03:19:08;;;;;;;0.10;0.10;;;4.90;99.90;;;;;;5014782;28;20501;-68
2024/01/27 03:21:34;;;;;;;0.10;0.10;;;4.90;99.90;;;;;;5020018;28;20048;-69
2024/01/27 03:23:59;;;;;;;0.38;0.38;;;4.80;99.90;;;;;;5021718;28;20121;-68
2024/01/27 03:26:25;;;;;;;0.10;0.10;;;4.80;99.90;;;;;;5012166;28;20049;-68
2024/01/27 03:28:51;;;;;;;0.22;0.22;;;4.70;99.90;;;;;;5017405;28;20152;-68
2024/01/27 03:31:16;;;;;;;0.50;0.50;;;4.70;99.90;;;;;;5023370;28;20049;-69
2024/01/27 03:33:42;;;;;;;0.43;0.43;;;4.70;99.90;;;;;;5027324;28;20556;-69
2024/01/27 03:36:14;;;;;;;0.10;0.10;;;4.60;99.90;;;;;;5017224;28;20045;-69
2024/01/27 03:38:41;;;;;;;1.15;0.57;;;4.60;99.90;;;;;;5026585;28;20116;-69
2024/01/27 03:41:06;;;;;;;0.10;0.10;;;4.70;99.90;;;;;;5018446;28;20042;-69
2024/01/27 03:43:33;;;;;;;2.67;2.47;;;4.70;99.90;;;;;;5018250;28;20120;-69
2024/01/27 03:45:59;;;;;;;0.13;0.13;;;4.70;99.90;;;;;;5021179;28;20053;-68
2024/01/27 03:48:24;;;;;;;0.10;0.10;;;4.70;99.90;;;;;;5024814;28;20834;-69
2024/01/27 03:50:50;;;;;;;0.10;0.10;;;4.80;99.90;;;;;;5020915;28;20465;-69
2024/01/27 03:53:15;;;;;;;0.20;0.20;;;4.60;99.90;;;;;;5023095;28;20557;-68
2024/01/27 03:55:41;;;;;;;0.30;0.30;;;4.60;99.90;;;;;;5035882;28;20119;-69
2024/01/27 03:58:07;;;;;;;0.10;0.10;;;4.60;99.90;;;;;;5019457;28;20041;-69
2024/01/27 04:00:33;;;;;;;0.10;0.10;;;4.50;99.90;;;;;;5016282;28;20042;-69
2024/01/27 04:03:02;;;;;;;0.30;0.30;;;4.40;99.90;;;;;;5020646;28;20055;-69
2024/01/27 04:05:29;;;;;;;0.10;0.10;;;4.50;99.90;;;;;;5021386;28;20049;-69
2024/01/27 04:07:55;;;;;;;0.10;0.10;;;4.40;99.90;;;;;;5027071;28;20129;-69
2024/01/27 04:10:22;;;;;;;0.10;0.10;;;4.40;99.90;;;;;;5027230;28;20385;-69
2024/01/27 04:12:48;;;;;;;2.05;1.83;;;4.50;99.90;;;;;;5024932;28;20049;-69
2024/01/27 04:15:13;;;;;;;3.47;1.75;;;4.50;99.90;;;;;;5014471;28;20155;-69
2024/01/27 04:17:42;;;;;;;0.10;0.10;;;4.60;99.90;;;;;;5019894;28;20448;-69
2024/01/27 04:20:09;;;;;;;0.10;0.10;;;4.60;99.90;;;;;;5025829;28;20508;-69
2024/01/27 04:22:35;;;;;;;0.10;0.10;;;4.60;99.90;;;;;;5011882;28;20045;-69
2024/01/27 04:25:00;;;;;;;1.08;0.82;;;4.60;99.90;;;;;;5017301;28;20482;-69
2024/01/27 04:27:30;;;;;;;0.85;0.85;;;4.60;99.90;;;;;;5026133;28;20050;-69
2024/01/27 04:29:56;;;;;;;0.25;0.25;;;4.60;99.90;;;;;;5027172;28;20042;-69
2024/01/27 04:32:23;;;;;;;0.10;0.10;;;4.60;99.90;;;;;;5026070;28;20049;-69
2024/01/27 04:34:49;;;;;;;0.10;0.10;;;4.50;99.90;;;;;;5028498;28;20045;-69
2024/01/27 04:37:14;;;;;;;0.65;0.40;;;4.50;99.90;;;;;;5027552;28;20047;-69
2024/01/27 04:39:40;;;;;;;0.10;0.10;;;4.30;99.90;;;;;;5021375;28;20062;-69
2024/01/27 04:42:06;;;;;;;0.20;0.20;;;4.30;99.90;;;;;;5024832;28;20128;-68
2024/01/27 04:44:33;;;;;;;0.10;0.10;;;4.20;99.90;;;;;;5027932;28;20119;-68
2024/01/27 04:46:59;;;;;;;0.10;0.10;;;4.20;99.90;;;;;;5025228;28;20045;-69
2024/01/27 04:49:25;;;;;;;0.10;0.10;;;4.20;99.90;;;;;;5023189;28;20453;-68
2024/01/27 04:51:51;;;;;;;4.28;2.55;;;4.20;99.90;;;;;;5025744;28;20048;-69
2024/01/27 04:54:16;;;;;;;1.75;1.30;;;4.10;99.90;;;;;;5019051;28;20041;-69
2024/01/27 04:56:42;;;;;;;0.10;0.10;;;4.10;99.90;;;;;;5022200;28;20041;-69
2024/01/27 04:59:08;;;;;;;0.45;0.45;;;4.10;99.90;;;;;;5026019;28;20033;-69
2024/01/27 05:01:33;;;;;;;0.25;0.25;;;4.00;99.90;;;;;;5028001;28;20076;-69
2024/01/27 05:03:59;;;;;;;0.22;0.22;;;4.00;99.90;;;;;;5023293;28;20034;-68
2024/01/27 05:06:25;;;;;;;0.10;0.10;;;3.80;99.90;;;;;;5025204;28;20525;-68
2024/01/27 05:08:51;;;;;;;0.10;0.10;;;3.90;99.90;;;;;;5022324;28;20117;-68
2024/01/27 05:11:26;;;;;;;0.10;0.10;;;3.90;99.90;;;;;;5027264;28;20048;-68
2024/01/27 05:13:52;;;;;;;2.08;0.80;;;3.90;99.90;;;;;;5042880;28;20453;-68
2024/01/27 05:16:17;;;;;;;2.22;2.08;;;3.90;99.90;;;;;;5017931;28;20120;-68
2024/01/27 05:18:43;;;;;;;16.55;1.67;;;3.90;99.90;;;;;;5023986;28;20045;-68
2024/01/27 05:21:08;;;;;;;0.50;0.50;;;3.90;99.90;;;;;;5026794;28;20053;-68
2024/01/27 05:23:34;;;;;;;0.10;0.10;;;3.90;99.90;;;;;;5018308;28;20045;-69
2024/01/27 05:25:59;;;;;;;0.35;0.35;;;4.00;99.90;;;;;;5026006;28;20045;-68
2024/01/27 05:28:25;;;;;;;0.10;0.10;;;3.90;99.90;;;;;;5021880;28;20053;-69
2024/01/27 05:30:51;;;;;;;0.32;0.32;;;4.00;99.90;;;;;;5016785;28;20068;-68
2024/01/27 05:33:16;;;;;;;2.20;0.98;;;4.00;99.90;;;;;;5026933;28;20049;-69
2024/01/27 05:35:42;;;;;;;0.10;0.10;;;4.00;99.90;;;;;;5019763;28;20045;-68
2024/01/27 05:38:08;;;;;;;0.10;0.10;;;4.00;99.90;;;;;;5025945;28;20033;-69
2024/01/27 05:40:33;;;;;;;0.10;0.10;;;4.00;99.90;;;;;;5027409;28;20064;-68
2024/01/27 05:42:59;;;;;;;0.50;0.50;;;4.00;99.90;;;;;;5023870;28;20045;-68
2024/01/27 05:45:26;;;;;;;0.10;0.10;;;4.00;99.90;;;;;;5020797;28;20065;-68
2024/01/27 05:47:52;;;;;;;0.25;0.25;;;4.00;99.90;;;;;;5018616;28;20050;-69
2024/01/27 05:50:17;;;;;;;0.50;0.50;;;4.00;99.90;;;;;;5024281;28;20053;-68
2024/01/27 05:52:43;;;;;;;0.10;0.10;;;4.00;99.90;;;;;;5028186;28;20091;-69
2024/01/27 05:55:09;;;;;;;0.40;0.40;;;3.90;99.90;;;;;;5020671;28;20152;-68
2024/01/27 05:57:35;;;;;;;0.10;0.10;;;4.00;99.90;;;;;;5022586;28;20061;-68
2024/01/27 06:00:01;;;;;;;0.10;0.10;;;3.90;99.90;;;;;;5024824;28;20044;-68
2024/01/27 06:02:26;;;;;;;0.10;0.10;;;3.90;99.90;;;;;;5010461;28;20107;-69
2024/01/27 06:04:52;;;;;;;1.85;0.88;;;3.90;99.90;;;;;;5017480;28;20064;-68
2024/01/27 06:07:17;;;;;;;0.10;0.10;;;4.00;99.90;;;;;;5020093;28;20044;-69
2024/01/27 06:09:43;;;;;;;3.83;3.13;;;3.90;99.90;;;;;;5025441;28;20172;-69
2024/01/27 06:12:08;;;;;;;0.20;0.20;;;3.90;99.90;;;;;;5026337;28;20041;-68
2024/01/27 06:14:34;;;;;;;0.10;0.10;;;4.00;99.90;;;;;;5014942;28;20412;-69
2024/01/27 06:17:00;;;;;;;0.10;0.10;;;3.90;99.90;;;;;;5021086;28;20045;-69
2024/01/27 06:19:26;;;;;;;0.10;0.10;;;4.00;99.90;;;;;;5024833;28;20611;-69
2024/01/27 06:21:52;;;;;;;0.10;0.10;;;4.00;99.90;;;;;;5026294;28;20053;-68
2024/01/27 06:24:17;;;;;;;0.90;0.90;;;4.00;99.90;;;;;;5024018;28;20120;-68
2024/01/27 06:26:43;;;;;;;0.10;0.10;;;4.00;99.90;;;;;;5027225;28;20056;-68
2024/01/27 06:29:08;;;;;;;0.10;0.10;;;4.00;99.90;;;;;;5023470;28;20038;-68
2024/01/27 06:31:34;;;;;;;0.10;0.10;;;4.00;99.90;;;;;;5023778;28;20107;-69
2024/01/27 06:33:59;;;;;;;0.10;0.10;;;4.00;99.90;;;;;;5023761;28;20049;-69
2024/01/27 06:36:27;;;;;;;0.73;0.73;;;4.00;99.90;;;;;;5019342;28;20053;-68
2024/01/27 06:38:52;;;;;;;0.10;0.10;;;4.00;99.90;;;;;;5021007;28;20092;-69
2024/01/27 06:41:18;;;;;;;0.10;0.10;;;4.00;99.90;;;;;;5016990;28;20703;-69
2024/01/27 06:43:43;;;;;;;14.25;1.27;;;4.00;99.90;;;;;;5025554;28;20124;-68
2024/01/27 06:46:09;;;;;;;0.10;0.10;;;4.00;99.90;;;;;;5016383;28;20141;-68
2024/01/27 06:48:35;;;;;;;0.73;0.73;;;4.00;99.90;;;;;;5024754;28;20041;-68
2024/01/27 06:51:00;;;;;;;0.10;0.10;;;3.90;99.90;;;;;;5020324;28;20123;-68
2024/01/27 06:53:26;;;;;;;1.55;1.45;;;3.80;99.90;;;;;;5024578;28;20460;-68
2024/01/27 06:55:52;;;;;;;0.10;0.10;;;3.90;99.90;;;;;;5026636;28;20556;-69
2024/01/27 06:58:18;;;;;;;0.10;0.10;;;3.90;99.90;;;;;;5016469;28;20049;-68
2024/01/27 07:00:44;;;;;;;1.23;0.73;;;3.90;99.90;;;;;;5020944;28;20049;-68
2024/01/27 07:03:11;;;;;;;0.13;0.13;;;3.90;99.90;;;;;;5019854;28;20046;-69
2024/01/27 07:05:40;;;;;;;0.52;0.52;;;3.90;99.90;;;;;;5015229;28;20065;-69
2024/01/27 07:08:09;;;;;;;0.45;0.45;;;3.80;99.90;;;;;;5018251;28;20511;-68
2024/01/27 07:10:38;;;;;;;0.10;0.10;;;3.80;99.90;;;;;;5024241;28;20041;-68
2024/01/27 07:13:03;;;;;;;0.10;0.10;;;3.80;99.90;;;;;;5024168;28;20592;-68
2024/01/27 07:15:29;;;;;;;0.73;0.73;;;3.80;99.90;;;;;;5024525;28;20045;-69
2024/01/27 07:17:54;;;;;;;0.10;0.10;;;3.80;99.90;;;;;;5018625;28;20129;-68
2024/01/27 07:20:20;;;;;;;1.10;1.10;;;3.80;99.90;;;;;;5024007;28;20049;-68
2024/01/27 07:22:47;;;;;;;0.10;0.10;;;3.90;99.90;;;;;;5012821;28;20049;-68
2024/01/27 07:25:13;;;;;;;0.10;0.10;;;3.90;99.90;;;;;;5024164;28;20030;-68
2024/01/27 07:27:39;;;;;;;0.30;0.30;;;3.90;99.90;;;;;;5023366;28;20074;-68
2024/01/27 07:30:06;;;;;;;0.10;0.10;;;3.90;99.90;;;;;;5022104;28;20053;-68
2024/01/27 07:32:32;;;;;;;0.10;0.10;;;3.80;99.90;;;;;;5025542;28;20052;-69
2024/01/27 07:34:57;;;;;;;0.35;0.35;;;3.80;99.90;;;;;;5025604;28;20485;-68
2024/01/27 07:37:23;;;;;;;0.10;0.10;;;3.80;99.90;;;;;;5023123;28;20144;-68
2024/01/27 07:39:49;;;;;;;0.20;0.20;;;3.80;99.90;;;;;;5011548;28;20066;-68
2024/01/27 07:42:15;;;;;;;0.10;0.10;;;3.90;99.90;;;;;;5019266;28;20052;-68
2024/01/27 07:44:42;;;;;;;0.10;0.10;;;3.90;99.90;;;;;;5023482;28;20033;-68
2024/01/27 07:47:08;;;;;;;0.10;0.10;;;3.90;99.90;;;;;;5027160;28;20041;-68
2024/01/27 07:49:34;;;;;;;0.52;0.52;;;3.90;99.90;;;;;;5026789;28;20513;-68
2024/01/27 07:52:00;;;;;;;0.10;0.10;;;3.90;99.90;;;;;;5016669;28;20051;-68
2024/01/27 07:54:25;;;;;;;0.25;0.25;;;3.90;99.90;;;;;;5020220;28;20099;-68
2024/01/27 07:56:51;;;;;;;0.98;0.98;;;3.90;99.90;;;;;;5021375;28;20041;-68
2024/01/27 07:59:17;;;;;;;0.15;0.15;;;3.90;99.90;;;;;;5026343;28;20121;-68
2024/01/27 08:01:43;;;;;;;1.95;1.85;;;3.90;99.90;;;;;;5015650;28;20038;-68
2024/01/27 08:04:09;;;;;;;0.10;0.10;;;3.90;99.90;;;;;;5028037;28;20045;-68
2024/01/27 08:06:45;;;;;;;0.38;0.38;;;4.00;99.90;;;;;;5024964;28;20046;-68
2024/01/27 08:09:11;;;;;;;3.28;0.80;;;4.00;99.90;;;;;;5021895;28;21350;-68
2024/01/27 08:11:37;;;;;;;0.10;0.10;;;4.00;99.90;;;;;;5028552;28;20125;-68
2024/01/27 08:14:02;;;;;;;0.10;0.10;;;4.10;99.90;;;;;;5021949;28;20073;-68
2024/01/27 08:16:28;;;;;;;0.10;0.10;;;4.20;99.90;;;;;;5028966;28;20080;-69
2024/01/27 08:18:54;;;;;;;0.55;0.52;;;4.20;99.90;;;;;;5020219;28;20053;-68
2024/01/27 08:21:19;;;;;;;0.10;0.10;;;4.20;99.90;;;;;;5029037;28;21003;-68
2024/01/27 08:23:45;;;;;;;0.10;0.10;;;4.20;99.90;;;;;;5029964;28;20381;-68
2024/01/27 08:26:11;;;;;;;3.33;2.40;;;4.30;99.90;;;;;;5030285;28;20037;-68
2024/01/27 08:28:36;;;;;;;0.65;0.52;;;4.30;99.90;;;;;;5026057;28;20057;-68
2024/01/27 08:31:02;;;;;;;0.35;0.35;;;4.30;99.90;;;;;;5027835;28;20473;-69
2024/01/27 08:33:28;;;;;;;0.10;0.10;;;4.40;99.90;;;;;;5028914;28;20049;-68
2024/01/27 08:35:54;;;;;;;0.10;0.10;;;4.40;99.90;;;;;;5029307;28;20092;-69
2024/01/27 08:38:19;;;;;;;0.68;0.45;;;4.50;99.90;;;;;;5021029;28;20452;-67
2024/01/27 08:40:45;;;;;;;0.10;0.10;;;4.50;99.90;;;;;;5020718;28;20452;-67
2024/01/27 08:43:10;;;;;;;1.27;0.77;;;4.50;99.90;;;;;;5030487;28;20113;-67
2024/01/27 08:45:38;;;;;;;0.10;0.10;;;4.60;99.90;;;;;;5020811;28;20062;-67
2024/01/27 08:48:04;;;;;;;0.10;0.10;;;4.60;99.90;;;;;;5024514;28;20033;-67
2024/01/27 08:50:30;;;;;;;6.70;1.17;;;4.60;99.90;;;;;;5027593;28;20090;-68
2024/01/27 08:52:55;;;;;;;0.32;0.32;;;4.70;99.90;;;;;;5020118;28;20045;-67
2024/01/27 08:55:23;;;;;;;0.10;0.10;;;4.70;99.90;;;;;;5021117;28;20132;-67
2024/01/27 08:57:49;;;;;;;0.20;0.20;;;4.80;99.90;;;;;;5017183;28;20393;-69
2024/01/27 09:00:16;;;;;;;0.10;0.10;;;4.80;99.90;;;;;;5028809;28;20075;-68
2024/01/27 09:02:42;;;;;;;0.10;0.10;;;4.80;99.90;;;;;;5023775;28;20797;-68
2024/01/27 09:05:08;;;;;;;2.20;2.10;;;4.90;99.90;;;;;;5022077;28;20531;-68
2024/01/27 09:07:34;;;;;;;0.10;0.10;;;4.90;99.90;;;;;;5020529;28;20034;-69
2024/01/27 09:10:00;;;;;;;0.10;0.10;;;4.90;99.90;;;;;;5020462;28;20041;-68
2024/01/27 09:12:26;;;;;;;0.10;0.10;;;4.90;99.90;;;;;;5015002;28;20486;-68
2024/01/27 09:14:51;;;;;;;0.85;0.85;;;4.90;99.90;;;;;;5021501;28;20183;-68
2024/01/27 09:17:17;;;;;;;0.10;0.10;;;5.00;99.90;;;;;;5028216;28;20039;-67
2024/01/27 09:19:42;;;;;;;0.20;0.20;;;5.00;99.90;;;;;;5019806;28;20111;-68
2024/01/27 09:22:08;;;;;;;0.10;0.10;;;5.10;99.90;;;;;;5024136;28;20049;-68
2024/01/27 09:24:33;;;;;;;0.47;0.47;;;5.10;99.90;;;;;;5018538;28;20049;-68
2024/01/27 09:26:59;;;;;;;0.45;0.45;;;5.20;99.90;;;;;;5026573;28;20037;-68
2024/01/27 09:29:25;;;;;;;1.08;0.98;;;5.20;99.90;;;;;;5019604;28;20045;-68
2024/01/27 09:31:50;;;;;;;0.10;0.10;;;5.30;99.90;;;;;;5028575;28;20073;-68
2024/01/27 09:34:16;;;;;;;1.30;1.20;;;5.30;99.90;;;;;;5020778;28;20052;-68
2024/01/27 09:36:41;;;;;;;2.83;2.28;;;5.40;99.90;;;;;;5041788;28;20426;-68
2024/01/27 09:39:08;;;;;;;0.10;0.10;;;5.40;99.90;;;;;;5022041;28;20053;-68
2024/01/27 09:41:33;;;;;;;0.70;0.70;;;5.50;99.90;;;;;;5025085;28;20057;-68
2024/01/27 09:44:03;;;;;;;0.10;0.10;;;5.50;99.90;;;;;;5029828;28;20037;-68
2024/01/27 09:46:30;;;;;;;0.10;0.10;;;5.60;99.90;;;;;;5019652;28;20050;-68
2024/01/27 09:48:56;;;;;;;0.50;0.50;;;5.60;99.90;;;;;;5026384;28;20257;-68
2024/01/27 09:51:22;;;;;;;0.10;0.10;;;5.60;99.90;;;;;;5026923;28;20042;-68
2024/01/27 09:53:50;;;;;;;0.30;0.30;;;5.70;99.90;;;;;;5025304;28;20436;-68
2024/01/27 09:56:17;;;;;;;3.13;1.65;;;5.80;99.90;;;;;;5024016;28;20046;-68
2024/01/27 09:58:44;;;;;;;0.10;0.10;;;5.80;99.90;;;;;;5020062;28;20045;-68
2024/01/27 10:01:10;;;;;;;3.38;2.05;;;5.90;99.90;;;;;;5018652;28;20033;-68
2024/01/27 10:03:38;;;;;;;0.32;0.32;;;6.00;99.90;;;;;;5027257;28;20064;-68
2024/01/27 10:06:10;;;;;;;0.10;0.10;;;6.00;99.90;;;;;;5028244;28;20049;-68
2024/01/27 10:08:35;;;;;;;0.10;0.10;;;6.10;99.90;;;;;;5024706;28;20128;-68
2024/01/27 10:11:07;;;;;;;0.10;0.10;;;6.20;99.90;;;;;;5022017;28;20536;-68
2024/01/27 10:13:33;;;;;;;2.28;0.45;;;6.20;99.90;;;;;;5019181;28;20052;-68
2024/01/27 10:16:09;;;;;;;0.10;0.10;;;6.30;99.90;;;;;;5021016;28;20128;-68
2024/01/27 10:18:35;;;;;;;0.40;0.40;;;6.40;99.90;;;;;;5019657;28;20132;-68
2024/01/27 10:21:20;;;;;;;0.95;0.95;;;6.50;99.90;;;;;;5028478;28;20133;-68
2024/01/27 10:23:46;;;;;;;0.65;0.65;;;6.50;99.90;;;;;;5042432;28;20500;-68
2024/01/27 10:26:12;;;;;;;0.10;0.10;;;6.70;99.90;;;;;;5020907;28;20124;-68
2024/01/27 10:28:37;;;;;;;1.33;1.25;;;6.80;99.90;;;;;;5018107;28;20136;-68
2024/01/27 10:31:10;;;;;;;0.17;0.17;;;6.90;99.90;;;;;;5014818;28;20493;-68
2024/01/27 10:33:35;;;;;;;0.22;0.22;;;7.10;99.90;;;;;;5025144;28;20444;-68
2024/01/27 10:36:01;;;;;;;0.10;0.10;;;7.10;99.90;;;;;;5026923;28;20048;-68
2024/01/27 10:38:37;;;;;;;0.20;0.20;;;7.20;99.90;;;;;;5013160;28;20388;-68
2024/01/27 10:41:07;;;;;;;5.05;1.65;;;7.30;99.90;;;;;;5017894;28;20146;-68
2024/01/27 10:43:35;;;;;;;0.10;0.10;;;7.40;99.90;;;;;;5017275;28;20057;-68
2024/01/27 10:46:05;;;;;;;0.65;0.65;;;7.50;99.90;;;;;;5023434;28;20617;-68
2024/01/27 10:48:31;;;;;;;2.13;1.45;;;7.60;99.90;;;;;;5018811;28;20042;-68
2024/01/27 10:51:00;;;;;;;0.20;0.20;;;7.60;99.90;;;;;;5024568;28;20120;-68
2024/01/27 10:53:30;;;;;;;0.77;0.77;;;7.70;99.90;;;;;;5026879;28;20592;-68
2024/01/27 10:55:58;;;;;;;1.10;0.90;;;7.80;99.90;;;;;;5022614;28;20034;-68
2024/01/27 10:58:24;;;;;;;0.10;0.10;;;7.90;99.90;;;;;;5023397;28;20043;-68
2024/01/27 11:00:52;;;;;;;0.10;0.10;;;7.90;99.90;;;;;;5027491;28;20064;-68
2024/01/27 11:03:19;;;;;;;0.10;0.10;;;8.00;99.90;;;;;;5019553;28;20034;-68
2024/01/27 11:05:47;;;;;;;0.57;0.57;;;8.00;99.90;;;;;;5014185;28;20124;-68
2024/01/27 11:08:13;;;;;;;2.50;2.30;;;8.10;99.90;;;;;;5028405;28;20037;-68
2024/01/27 11:10:40;;;;;;;0.20;0.20;;;8.20;99.90;;;;;;5014561;28;20049;-68
2024/01/27 11:13:07;;;;;;;0.10;0.10;;;8.20;99.90;;;;;;5011771;28;20042;-69
2024/01/27 11:15:33;;;;;;;0.10;0.10;;;8.20;99.90;;;;;;5026707;28;20037;-69
2024/01/27 11:17:59;;;;;;;0.10;0.10;;;8.20;99.90;;;;;;5031625;28;20103;-69
2024/01/27 11:20:25;;;;;;;0.73;0.73;;;8.20;99.90;;;;;;5027298;28;20548;-68
2024/01/27 11:22:52;;;;;;;0.22;0.22;;;8.30;99.90;;;;;;5022550;28;20068;-69
2024/01/27 11:25:18;;;;;;;0.28;0.28;;;8.40;99.90;;;;;;5025787;28;20038;-69
2024/01/27 11:27:46;;;;;;;0.90;0.90;;;8.30;99.90;;;;;;5027392;28;20045;-69
2024/01/27 11:30:28;;;;;;;0.52;0.52;;;8.40;99.90;;;;;;5019874;28;20050;-69
2024/01/27 11:32:57;;;;;;;0.10;0.10;;;8.40;99.90;;;;;;5026576;28;20041;-69
2024/01/27 11:35:24;;;;;;;0.80;0.75;;;8.50;99.90;;;;;;5015352;28;20029;-68
2024/01/27 11:37:50;;;;;;;2.00;1.90;;;8.50;99.90;;;;;;5023326;28;20044;-69
2024/01/27 11:40:15;;;;;;;0.10;0.10;;;8.60;99.90;;;;;;5029503;28;20049;-69
2024/01/27 11:42:42;;;;;;;0.95;0.95;;;8.70;99.90;;;;;;5025928;28;20057;-69
2024/01/27 11:45:10;;;;;;;0.10;0.10;;;8.80;99.90;;;;;;5028024;28;20045;-69
2024/01/27 11:47:36;;;;;;;0.03;0.03;;;8.80;99.90;;;;;;5017923;28;20591;-69
2024/01/27 11:50:03;;;;;;;0.10;0.10;;;8.90;99.90;;;;;;5029942;28;20041;-69
2024/01/27 11:52:29;;;;;;;1.08;0.95;;;9.00;99.90;;;;;;5031026;28;20049;-69
2024/01/27 11:55:00;;;;;;;5.30;1.40;;;9.20;99.90;;;;;;5021419;28;20045;-69
2024/01/27 11:57:27;;;;;;;0.10;0.10;;;9.30;99.90;;;;;;5023387;28;20041;-69
2024/01/27 11:59:53;;;;;;;0.70;0.70;;;9.30;99.90;;;;;;5031324;28;20049;-69
2024/01/27 12:02:19;;;;;;;3.10;1.20;;;9.40;99.90;;;;;;5021789;28;20469;-69
2024/01/27 12:04:45;;;;;;;0.10;0.10;;;9.50;99.90;;;;;;5018973;28;20046;-69
2024/01/27 12:07:11;;;;;;;1.73;1.45;;;9.70;99.90;;;;;;5020040;28;20042;-69
2024/01/27 12:09:37;;;;;;;0.60;0.55;;;9.70;99.90;;;;;;5022414;28;20038;-69
2024/01/27 12:12:04;;;;;;;0.20;0.20;;;9.90;99.90;;;;;;5022748;28;20042;-69
2024/01/27 12:14:41;;;;;;;1.10;1.02;;;10.10;99.90;;;;;;5022383;28;20046;-69
2024/01/27 12:17:10;;;;;;;0.17;0.17;;;10.20;99.90;;;;;;5023385;28;20096;-69
2024/01/27 12:19:36;;;;;;;0.20;0.20;;;10.50;99.90;;;;;;5025694;28;20041;-69
2024/01/27 12:22:03;;;;;;;0.10;0.10;;;10.50;99.90;;;;;;5022446;28;20077;-69
2024/01/27 12:24:29;;;;;;;2.40;1.55;;;10.50;99.90;;;;;;5021634;28;20045;-69
2024/01/27 12:26:57;;;;;;;0.15;0.15;;;10.50;99.90;;;;;;5016711;28;20045;-69
2024/01/27 12:29:23;;;;;;;1.58;1.48;;;10.40;99.90;;;;;;5028632;28;20132;-69
2024/01/27 12:31:49;;;;;;;0.90;0.90;;;10.50;99.90;;;;;;5029199;28;20493;-69
2024/01/27 12:34:15;;;;;;;0.43;0.43;;;10.50;99.90;;;;;;5030348;28;20049;-69
2024/01/27 12:36:43;;;;;;;2.97;2.78;;;10.50;99.90;;;;;;5019245;28;20088;-69
2024/01/27 12:39:10;;;;;;;0.35;0.35;;;10.50;99.90;;;;;;5022879;28;20054;-69
2024/01/27 12:41:35;;;;;;;0.40;0.40;;;10.50;99.90;;;;;;5018568;28;20116;-69
2024/01/27 12:44:01;;;;;;;3.28;1.02;;;10.60;99.90;;;;;;5029665;28;20147;-69
2024/01/27 12:46:27;;;;;;;0.10;0.10;;;10.50;99.90;;;;;;5023184;28;20033;-69
2024/01/27 12:48:53;;;;;;;0.57;0.57;;;10.50;99.90;;;;;;5026699;28;20037;-69
2024/01/27 12:51:19;;;;;;;8.57;1.75;;;10.50;99.90;;;;;;5021678;28;20048;-69